Time;durP1;ratioP1;P1;durP2;ratioP2;P2;SDS_P1;SDS_P2;PMS_P1;PMS_P2;Temp;Humidity;BMP_temperature;BMP_pressure;BME280_temperature;BME280_humidity;BME280_pressure;Samples;Min_cycle;Max_cycle;Signal;HPM_P1;HPM_P2
2022/02/12 00:01:06;;;;;;;1.32;0.95;;;;;;;5.43;67.01;101996.72;1813338;78;21150;-63
2022/02/12 00:03:35;;;;;;;3.30;1.00;;;;;;;5.51;66.97;102015.44;1811642;78;21060;-63
2022/02/12 00:06:04;;;;;;;2.80;1.25;;;;;;;5.53;66.90;102009.81;1817524;77;21052;-61
2022/02/12 00:08:33;;;;;;;2.52;1.15;;;;;;;5.54;66.92;102013.28;1850548;77;21024;-61
2022/02/12 00:11:01;;;;;;;4.75;1.45;;;;;;;5.55;67.00;102013.30;1867614;77;21552;-62
2022/02/12 00:13:30;;;;;;;3.37;1.10;;;;;;;5.55;67.15;102006.77;1867877;77;21474;-65
2022/02/12 00:16:00;;;;;;;3.72;1.37;;;;;;;5.56;67.12;102008.93;1867842;77;21100;-64
2022/02/12 00:18:29;;;;;;;1.70;1.05;;;;;;;5.55;67.19;102007.17;1867927;77;21134;-64
2022/02/12 00:20:58;;;;;;;4.83;1.22;;;;;;;5.57;67.40;102002.41;1867867;77;21099;-65
2022/02/12 00:23:27;;;;;;;3.25;1.25;;;;;;;5.58;67.32;101990.20;1875946;75;21094;-65
2022/02/12 00:25:55;;;;;;;2.02;1.30;;;;;;;5.60;67.24;102017.20;1880353;76;21039;-65
2022/02/12 00:28:24;;;;;;;1.22;0.62;;;;;;;5.62;67.22;101999.78;1880449;76;21080;-61
2022/02/12 00:30:53;;;;;;;2.92;1.37;;;;;;;5.65;67.28;102001.11;1880413;76;21104;-62
2022/02/12 00:33:22;;;;;;;1.92;1.37;;;;;;;5.72;67.30;102004.61;1880414;76;21141;-64
2022/02/12 00:35:50;;;;;;;1.87;0.95;;;;;;;5.79;67.32;101993.27;1880375;76;21129;-63
2022/02/12 00:38:19;;;;;;;1.12;1.02;;;;;;;5.80;67.28;102002.42;1880469;76;21027;-64
2022/02/12 00:40:48;;;;;;;1.60;1.17;;;;;;;5.82;67.26;102010.72;1880236;76;21233;-61
2022/02/12 00:43:16;;;;;;;1.35;0.98;;;;;;;5.82;67.40;101984.13;1880456;76;21149;-62
2022/02/12 00:45:46;;;;;;;2.17;1.22;;;;;;;5.89;67.45;102000.70;1880530;76;21059;-62
2022/02/12 00:48:15;;;;;;;3.10;1.30;;;;;;;5.93;67.30;101997.21;1880706;76;21039;-62
2022/02/12 00:50:44;;;;;;;4.37;1.32;;;;;;;5.93;67.26;101993.30;1880480;76;21061;-62
2022/02/12 00:53:13;;;;;;;2.65;1.22;;;;;;;5.94;67.31;101989.82;1880612;76;21482;-62
2022/02/12 00:55:42;;;;;;;3.12;1.30;;;;;;;5.95;67.36;101986.31;1880561;76;21559;-62
2022/02/12 00:58:10;;;;;;;1.45;0.93;;;;;;;5.96;67.39;101989.41;1880535;76;21075;-62
2022/02/12 01:00:39;;;;;;;1.90;1.17;;;;;;;5.97;67.49;101981.98;1880601;76;21555;-61
2022/02/12 01:03:08;;;;;;;2.33;1.00;;;;;;;6.01;67.59;101991.56;1880248;76;21572;-62
2022/02/12 01:05:37;;;;;;;5.20;1.80;;;;;;;6.04;67.56;101988.96;1880529;76;21489;-62
2022/02/12 01:08:07;;;;;;;5.53;1.30;;;;;;;6.03;67.54;101984.62;1880539;76;21486;-62
2022/02/12 01:10:36;;;;;;;4.00;1.45;;;;;;;6.06;67.67;101986.36;1880612;76;21039;-63
2022/02/12 01:13:05;;;;;;;4.62;1.42;;;;;;;6.08;67.54;101976.77;1880543;76;21019;-62
2022/02/12 01:15:34;;;;;;;3.05;1.10;;;;;;;6.11;67.49;101982.00;1880466;76;21482;-63
2022/02/12 01:18:04;;;;;;;2.42;1.20;;;;;;;6.08;67.46;101988.08;1880375;76;21490;-62
2022/02/12 01:20:34;;;;;;;3.62;2.22;;;;;;;6.04;67.53;101981.12;1880570;76;21047;-62
2022/02/12 01:23:03;;;;;;;3.27;1.37;;;;;;;6.01;67.60;101975.02;1878612;76;21072;-62
2022/02/12 01:25:33;;;;;;;3.20;1.20;;;;;;;6.00;67.72;101985.92;1867749;77;21501;-62
2022/02/12 01:28:03;;;;;;;4.35;1.57;;;;;;;6.01;67.80;101978.49;1867831;77;21020;-62
2022/02/12 01:30:32;;;;;;;2.77;1.35;;;;;;;6.04;67.73;101968.05;1867848;77;21176;-62
2022/02/12 01:33:01;;;;;;;3.95;1.37;;;;;;;6.09;67.60;101982.44;1868083;77;21015;-61
2022/02/12 01:35:29;;;;;;;3.25;1.57;;;;;;;6.10;67.59;101979.80;1867818;77;21082;-62
2022/02/12 01:37:58;;;;;;;4.90;1.50;;;;;;;6.08;67.62;101987.22;1868028;77;21603;-65
2022/02/12 01:40:27;;;;;;;1.98;0.80;;;;;;;6.03;67.63;101982.01;1867943;77;21515;-65
2022/02/12 01:43:01;;;;;;;2.62;1.27;;;;;;;6.01;67.67;101975.87;1867935;77;21127;-65
2022/02/12 01:45:28;;;;;;;3.67;1.15;;;;;;;6.02;67.66;101971.55;1867387;77;21610;-60
2022/02/12 01:47:57;;;;;;;2.33;1.20;;;;;;;6.03;67.64;101983.73;1867758;77;21494;-61
2022/02/12 01:50:26;;;;;;;4.03;1.15;;;;;;;6.01;67.68;101979.80;1867586;77;21491;-64
2022/02/12 01:52:55;;;;;;;5.83;1.07;;;;;;;6.01;67.68;101979.80;1867798;77;21048;-61
2022/02/12 01:55:24;;;;;;;3.75;1.30;;;;;;;6.03;67.71;101992.47;1867874;77;21490;-62
2022/02/12 01:57:53;;;;;;;4.10;1.25;;;;;;;6.07;67.66;101992.00;1867834;77;21067;-62
2022/02/12 02:00:22;;;;;;;2.42;1.22;;;;;;;6.09;67.57;101991.15;1867797;77;21491;-62
2022/02/12 02:02:51;;;;;;;4.20;1.30;;;;;;;6.08;67.51;101993.31;1868733;76;21064;-61
2022/02/12 02:05:21;;;;;;;2.33;1.57;;;;;;;6.07;67.63;101988.97;1867763;77;21071;-61
2022/02/12 02:07:49;;;;;;;3.27;1.42;;;;;;;6.06;67.71;101995.50;1867945;77;21076;-62
2022/02/12 02:10:18;;;;;;;3.25;1.60;;;;;;;6.05;67.81;101993.75;1867799;77;21071;-62
2022/02/12 02:12:47;;;;;;;2.67;1.65;;;;;;;6.10;67.91;101992.02;1867630;77;21556;-61
2022/02/12 02:15:16;;;;;;;3.00;1.50;;;;;;;6.16;67.83;101995.50;1867724;77;21075;-62
2022/02/12 02:17:44;;;;;;;8.35;1.62;;;;;;;6.18;67.77;101992.45;1867717;77;21498;-60
2022/02/12 02:20:13;;;;;;;4.75;2.05;;;;;;;6.21;67.73;101996.80;1867732;77;21133;-61
2022/02/12 02:22:56;;;;;;;1.20;0.93;;;;;;;6.19;67.70;101992.86;1867727;77;21518;-61
2022/02/12 02:25:25;;;;;;;3.27;1.45;;;;;;;6.18;67.70;101982.44;1878558;76;21130;-61
2022/02/12 02:27:54;;;;;;;2.20;1.40;;;;;;;6.15;67.66;101989.83;1880561;76;21547;-62
2022/02/12 02:30:27;;;;;;;2.47;1.02;;;;;;;6.17;67.73;101981.54;1880495;76;21071;-61
2022/02/12 02:32:55;;;;;;;7.12;1.85;;;;;;;6.15;67.73;101984.59;1880500;76;21047;-62
2022/02/12 02:35:25;;;;;;;2.58;1.20;;;;;;;6.16;67.73;101981.12;1880538;76;21524;-64
2022/02/12 02:37:56;;;;;;;1.90;1.32;;;;;;;6.19;67.73;101968.47;1928325;74;21135;-62
2022/02/12 02:40:24;;;;;;;3.45;1.40;;;;;;;6.19;67.68;101981.09;1940830;74;21510;-62
2022/02/12 02:42:54;;;;;;;3.25;1.55;;;;;;;6.22;67.68;101979.37;1940381;73;21502;-62
2022/02/12 02:45:22;;;;;;;3.37;1.47;;;;;;;6.24;67.69;101973.27;1940483;74;21031;-61
2022/02/12 02:47:51;;;;;;;4.37;1.30;;;;;;;6.27;67.66;101982.84;1940437;74;21028;-61
2022/02/12 02:56:02;;;;;;;2.90;1.35;;;;;;;6.27;67.66;101968.45;1940426;74;21832;-61
2022/02/12 02:58:34;;;;;;;3.67;1.00;;;;;;;6.23;67.75;101967.58;1940398;73;20996;-61
2022/02/12 03:01:05;;;;;;;2.98;1.32;;;;;;;6.22;67.84;101972.84;1940348;74;21121;-61
2022/02/12 03:03:34;;;;;;;6.55;1.95;;;;;;;6.21;68.01;101963.23;1940334;73;21172;-61
2022/02/12 03:06:03;;;;;;;1.37;1.27;;;;;;;6.17;68.03;101963.23;1940463;74;21595;-62
2022/02/12 03:08:31;;;;;;;4.28;1.75;;;;;;;6.15;68.11;101955.83;1940278;74;21114;-62
2022/02/12 03:11:00;;;;;;;3.15;1.85;;;;;;;6.16;68.28;101952.35;1940392;74;21609;-62
2022/02/12 03:13:29;;;;;;;1.77;1.37;;;;;;;6.18;68.30;101949.30;1940208;74;21047;-61
2022/02/12 03:15:58;;;;;;;2.95;2.00;;;;;;;6.21;68.25;101943.62;1940313;74;21007;-62
2022/02/12 03:18:27;;;;;;;1.95;1.30;;;;;;;6.22;68.31;101953.23;1940550;74;21466;-63
2022/02/12 03:20:56;;;;;;;5.03;1.90;;;;;;;6.23;68.29;101940.56;1940308;74;21027;-61
2022/02/12 03:23:25;;;;;;;3.17;1.62;;;;;;;6.21;68.25;101931.85;1940601;74;21031;-62
2022/02/12 03:25:53;;;;;;;2.83;1.90;;;;;;;6.19;68.37;101934.02;1940354;74;21012;-62
2022/02/12 03:28:22;;;;;;;4.60;1.65;;;;;;;6.18;68.43;101924.45;1940636;74;21455;-61
2022/02/12 03:30:51;;;;;;;4.10;1.85;;;;;;;6.19;68.41;101934.47;1940312;74;21498;-63
2022/02/12 03:33:20;;;;;;;4.42;1.92;;;;;;;6.17;68.43;101935.77;1940560;74;21125;-62
2022/02/12 03:35:49;;;;;;;5.60;1.62;;;;;;;6.17;68.46;101941.45;1940366;74;21552;-62
2022/02/12 03:38:21;;;;;;;5.72;1.92;;;;;;;6.16;68.52;101939.28;1948079;73;21067;-62
2022/02/12 03:40:54;;;;;;;4.45;1.60;;;;;;;6.15;68.56;101932.30;1971464;73;21483;-62
2022/02/12 03:43:22;;;;;;;4.65;1.90;;;;;;;6.18;68.76;101941.89;1971551;72;21495;-62
2022/02/12 03:45:53;;;;;;;3.70;1.50;;;;;;;6.21;68.70;101940.56;1971664;73;21525;-63
2022/02/12 03:48:22;;;;;;;4.70;1.70;;;;;;;6.24;68.74;101941.02;1972191;72;21106;-63
2022/02/12 03:50:54;;;;;;;2.12;1.32;;;;;;;6.27;68.78;101940.98;1972078;72;21506;-63
2022/02/12 03:53:23;;;;;;;5.62;2.10;;;;;;;6.30;68.69;101937.06;1972060;72;21017;-63
2022/02/12 03:55:52;;;;;;;5.15;2.25;;;;;;;6.33;68.75;101936.62;1972144;72;21505;-62
2022/02/12 03:58:21;;;;;;;5.83;2.25;;;;;;;6.36;68.69;101940.97;1971963;72;21056;-62
2022/02/12 04:00:51;;;;;;;5.70;1.98;;;;;;;6.39;68.65;101946.20;1972102;72;21506;-62
2022/02/12 04:03:20;;;;;;;5.42;1.75;;;;;;;6.41;68.66;101950.12;1972142;72;21498;-61
2022/02/12 04:05:48;;;;;;;2.98;2.40;;;;;;;6.43;68.88;101938.77;1972314;72;21400;-62
2022/02/12 04:08:23;;;;;;;5.40;1.47;;;;;;;6.48;68.93;101944.88;1972234;72;21060;-62
2022/02/12 04:10:51;;;;;;;2.20;1.60;;;;;;;6.48;68.88;101948.80;1971701;73;21044;-62
2022/02/12 04:13:20;;;;;;;5.37;1.80;;;;;;;6.51;68.90;101948.80;1972243;72;21048;-62
2022/02/12 04:15:49;;;;;;;12.88;3.25;;;;;;;6.53;68.96;101948.34;1972170;72;21067;-60
2022/02/12 04:18:18;;;;;;;2.87;1.57;;;;;;;6.55;68.86;101947.91;1972265;72;21048;-61
2022/02/12 04:20:47;;;;;;;6.03;2.00;;;;;;;6.56;68.85;101954.86;1972141;72;21055;-61
2022/02/12 04:23:16;;;;;;;5.10;2.50;;;;;;;6.59;68.79;101949.22;1971868;73;21044;-62
2022/02/12 04:25:45;;;;;;;6.20;1.75;;;;;;;6.61;68.78;101948.77;1972207;72;21459;-61
2022/02/12 04:28:14;;;;;;;6.17;2.12;;;;;;;6.64;68.75;101947.42;1972159;73;21052;-62
2022/02/12 04:30:42;;;;;;;4.60;1.67;;;;;;;6.68;68.71;101957.03;1972330;72;21551;-61
2022/02/12 04:33:12;;;;;;;4.05;1.55;;;;;;;6.68;68.75;101953.11;1972392;72;21538;-61
2022/02/12 04:35:41;;;;;;;4.78;2.02;;;;;;;6.67;68.89;101952.22;1972333;72;21039;-62
2022/02/12 04:38:10;;;;;;;6.62;1.75;;;;;;;6.69;68.98;101944.36;1972192;72;21059;-61
2022/02/12 04:40:38;;;;;;;3.00;1.50;;;;;;;6.72;68.94;101940.44;1972207;72;21017;-61
2022/02/12 04:43:08;;;;;;;5.72;2.60;;;;;;;6.78;68.94;101930.38;1972008;73;21032;-62
2022/02/12 04:45:37;;;;;;;4.58;2.15;;;;;;;6.80;68.84;101943.88;1972128;73;21093;-62
2022/02/12 04:48:06;;;;;;;2.87;1.55;;;;;;;6.85;68.87;101946.50;1972127;72;21564;-62
2022/02/12 04:50:37;;;;;;;2.98;1.55;;;;;;;6.91;68.82;101949.94;1972203;72;21164;-62
2022/02/12 04:53:05;;;;;;;4.72;1.57;;;;;;;6.95;68.74;101950.38;1972120;72;21000;-61
2022/02/12 04:55:34;;;;;;;3.17;1.85;;;;;;;6.97;68.67;101958.20;1972221;72;21447;-62
2022/02/12 04:58:03;;;;;;;4.20;1.80;;;;;;;7.00;68.71;101963.88;1972044;73;21455;-64
2022/02/12 05:00:32;;;;;;;6.17;2.12;;;;;;;7.03;68.66;101962.13;1972174;72;21564;-63
2022/02/12 05:03:01;;;;;;;4.33;1.65;;;;;;;7.08;68.57;101964.29;1971597;73;21530;-64
2022/02/12 05:05:30;;;;;;;7.15;2.00;;;;;;;7.10;68.54;101962.53;1972212;72;21111;-62
2022/02/12 05:07:58;;;;;;;6.05;2.17;;;;;;;7.13;68.45;101962.94;1972312;72;21027;-62
2022/02/12 05:10:27;;;;;;;2.95;1.80;;;;;;;7.17;68.43;101978.20;1972425;73;21169;-62
2022/02/12 05:12:56;;;;;;;6.00;2.27;;;;;;;7.19;68.37;101972.06;1972062;72;21016;-64
2022/02/12 05:15:25;;;;;;;2.15;1.42;;;;;;;7.22;68.26;101974.68;1972070;72;21122;-65
2022/02/12 05:17:53;;;;;;;6.83;2.02;;;;;;;7.25;68.12;101966.81;1972320;72;21539;-64
2022/02/12 05:20:22;;;;;;;4.50;1.90;;;;;;;7.27;68.05;101970.30;1972198;72;21056;-64
2022/02/12 05:22:51;;;;;;;6.55;2.02;;;;;;;7.27;67.96;101955.87;1972269;72;21588;-64
2022/02/12 05:25:20;;;;;;;4.17;1.72;;;;;;;7.30;67.92;101966.36;1971771;73;21101;-63
2022/02/12 05:27:48;;;;;;;2.45;1.55;;;;;;;7.31;67.86;101969.39;1970287;73;21469;-64
2022/02/12 05:30:17;;;;;;;3.47;1.98;;;;;;;7.36;67.72;101974.62;1971669;73;20988;-62
2022/02/12 05:32:46;;;;;;;8.28;2.20;;;;;;;7.45;67.39;101975.87;1972180;72;21479;-63
2022/02/12 05:35:14;;;;;;;7.65;2.10;;;;;;;7.54;67.26;101978.84;1972401;72;21112;-62
2022/02/12 05:37:43;;;;;;;4.12;1.90;;;;;;;7.61;66.84;101983.17;1972320;72;21031;-61
2022/02/12 05:40:12;;;;;;;4.12;2.17;;;;;;;7.73;65.97;101981.78;1971694;73;21538;-62
2022/02/12 05:42:41;;;;;;;3.87;1.90;;;;;;;7.89;65.96;101977.72;1972029;73;21573;-61
2022/02/12 05:45:10;;;;;;;3.67;1.85;;;;;;;8.18;65.65;101974.85;1972258;72;21032;-60
2022/02/12 05:47:43;;;;;;;2.30;1.37;;;;;;;8.41;65.00;101969.39;1972158;72;21526;-62
2022/02/12 05:50:11;;;;;;;3.02;1.90;;;;;;;8.63;64.20;101983.61;1972153;73;21482;-62
2022/02/12 05:52:41;;;;;;;5.12;2.00;;;;;;;8.58;63.63;101955.25;1972328;72;21134;-61
2022/02/12 05:55:10;;;;;;;4.60;1.60;;;;;;;8.61;63.70;101969.64;1972067;72;22245;-62
2022/02/12 05:57:38;;;;;;;3.80;1.57;;;;;;;8.60;63.83;101974.03;1972177;72;21486;-62
2022/02/12 06:00:08;;;;;;;5.35;1.98;;;;;;;8.84;63.75;101968.93;1972191;72;21024;-62
2022/02/12 06:02:38;;;;;;;4.40;1.85;;;;;;;8.92;63.38;101967.97;1971258;73;21084;-61
2022/02/12 06:05:08;;;;;;;4.40;2.30;;;;;;;9.48;62.98;101974.23;1972195;72;21019;-61
2022/02/12 06:07:36;;;;;;;7.47;2.47;;;;;;;9.62;62.21;101952.97;1972376;72;21097;-61
2022/02/12 06:10:06;;;;;;;6.03;2.27;;;;;;;9.43;61.71;101947.98;1971681;73;21016;-61
2022/02/12 06:12:34;;;;;;;6.35;2.75;;;;;;;9.60;61.73;101954.30;1972337;73;20996;-61
2022/02/12 06:15:04;;;;;;;6.03;2.90;;;;;;;9.86;61.07;101953.02;1972281;72;21016;-61
2022/02/12 06:17:32;;;;;;;4.10;1.98;;;;;;;9.95;60.64;101952.86;1972187;72;21016;-61
2022/02/12 06:20:01;;;;;;;4.03;1.72;;;;;;;10.07;59.02;101941.27;1971885;73;21048;-62
2022/02/12 06:22:30;;;;;;;4.20;1.82;;;;;;;10.12;59.71;101955.19;1971971;73;21178;-65
2022/02/12 06:24:59;;;;;;;6.75;2.05;;;;;;;10.87;58.33;101945.47;1972047;73;21568;-66
2022/02/12 06:27:27;;;;;;;3.67;1.75;;;;;;;11.63;57.80;101957.83;1971476;72;21040;-65
2022/02/12 06:29:56;;;;;;;6.17;2.08;;;;;;;12.04;55.39;101920.31;1971932;73;21490;-63
2022/02/12 06:32:26;;;;;;;5.08;2.55;;;;;;;12.53;54.26;101952.02;1971326;73;21466;-63
2022/02/12 06:35:00;;;;;;;8.05;2.25;;;;;;;12.98;53.37;101946.30;1972363;72;21404;-60
2022/02/12 06:37:30;;;;;;;6.80;2.17;;;;;;;13.85;53.80;101944.47;1972076;73;21439;-60
2022/02/12 06:40:00;;;;;;;3.25;1.70;;;;;;;14.12;53.34;101939.17;1965479;73;21044;-60
2022/02/12 06:42:28;;;;;;;4.78;2.15;;;;;;;14.70;51.81;101944.17;1962889;73;20996;-60
2022/02/12 06:44:57;;;;;;;4.25;1.87;;;;;;;15.21;49.91;101939.13;1962787;73;20993;-62
2022/02/12 06:47:26;;;;;;;6.85;2.75;;;;;;;15.55;48.32;101948.42;1962941;73;21032;-61
2022/02/12 06:49:54;;;;;;;3.50;2.20;;;;;;;15.57;46.19;101949.22;1962766;73;21005;-62
2022/02/12 06:52:23;;;;;;;4.50;2.00;;;;;;;15.76;45.21;101952.86;1962886;73;21001;-61
2022/02/12 06:54:53;;;;;;;6.15;2.02;;;;;;;15.69;45.34;101959.78;1962736;73;21037;-61
2022/02/12 06:57:22;;;;;;;8.28;2.12;;;;;;;16.14;45.56;101955.70;1962955;73;21087;-62
2022/02/12 06:59:50;;;;;;;7.08;2.42;;;;;;;16.68;45.25;101960.45;1962793;73;21115;-60
2022/02/12 07:02:20;;;;;;;7.62;1.22;;;;;;;16.48;44.54;101964.84;1940244;73;21574;-62
2022/02/12 07:04:48;;;;;;;5.85;2.20;;;;;;;15.60;45.16;101959.69;1938508;73;21428;-61
2022/02/12 07:07:17;;;;;;;6.40;2.10;;;;;;;14.41;45.91;101959.34;1936721;73;20988;-61
2022/02/12 07:09:46;;;;;;;4.53;1.87;;;;;;;13.44;47.46;101964.75;1962442;73;21548;-61
2022/02/12 07:12:14;;;;;;;3.60;1.70;;;;;;;12.62;48.59;101950.90;1962770;73;21044;-61
2022/02/12 07:14:43;;;;;;;7.40;1.65;;;;;;;12.02;50.12;101969.19;1962837;73;21092;-60
2022/02/12 07:17:12;;;;;;;4.05;2.20;;;;;;;11.87;51.38;101963.81;1963008;73;21059;-61
2022/02/12 07:19:41;;;;;;;7.95;3.05;;;;;;;11.61;52.31;101955.69;1950717;73;21034;-60
2022/02/12 07:22:09;;;;;;;5.62;1.47;;;;;;;11.34;53.28;101967.27;1928847;74;21449;-60
2022/02/12 07:24:38;;;;;;;5.42;1.98;;;;;;;11.07;53.95;101967.45;1928343;74;21046;-61
2022/02/12 07:27:07;;;;;;;6.95;2.17;;;;;;;10.84;54.55;101956.06;1928323;74;21038;-61
2022/02/12 07:29:36;;;;;;;7.35;2.25;;;;;;;10.69;55.02;101983.13;1928124;74;21070;-63
2022/02/12 07:32:05;;;;;;;5.97;2.22;;;;;;;10.48;55.71;101973.03;1928317;73;21528;-62
2022/02/12 07:34:34;;;;;;;7.35;1.80;;;;;;;10.38;56.17;101966.63;1928382;74;21122;-62
2022/02/12 07:37:03;;;;;;;6.20;2.60;;;;;;;10.26;56.74;101960.67;1928018;74;21161;-63
2022/02/12 07:39:32;;;;;;;7.00;2.52;;;;;;;10.34;56.69;101982.03;1928277;74;21115;-62
2022/02/12 07:42:01;;;;;;;5.55;2.22;;;;;;;10.53;56.60;101965.46;1928208;74;21044;-62
2022/02/12 07:44:29;;;;;;;3.52;1.70;;;;;;;11.98;53.53;101959.63;1930460;73;21097;-62
2022/02/12 07:46:58;;;;;;;4.08;1.80;;;;;;;12.15;51.88;101965.36;1928706;74;21040;-61
2022/02/12 07:49:27;;;;;;;7.95;2.02;;;;;;;12.83;50.90;101949.41;1928887;74;21514;-61
2022/02/12 07:51:56;;;;;;;3.22;1.92;;;;;;;13.63;49.30;101984.02;1928283;74;21126;-61
2022/02/12 07:54:25;;;;;;;3.52;1.57;;;;;;;13.95;48.89;101967.09;1928663;74;21044;-62
2022/02/12 07:56:56;;;;;;;3.80;1.67;;;;;;;14.00;48.87;101973.54;1930406;73;21067;-62
2022/02/12 07:59:24;;;;;;;5.25;2.17;;;;;;;14.51;46.70;101976.63;1928083;74;21149;-62
2022/02/12 08:01:53;;;;;;;7.75;2.17;;;;;;;14.78;46.69;101964.66;1930420;73;21117;-61
2022/02/12 08:04:22;;;;;;;6.00;2.12;;;;;;;15.13;45.62;101972.60;1927933;74;21024;-61
2022/02/12 08:09:37;;;;;;;8.78;2.02;;;;;;;16.04;42.50;101961.47;1937719;74;21494;-58
2022/02/12 08:12:18;;;;;;;3.92;1.72;;;;;;;16.39;42.71;101975.88;1937989;74;21005;-59
2022/02/12 08:14:48;;;;;;;5.92;1.82;;;;;;;16.37;40.82;101970.62;1937612;73;21040;-59
2022/02/12 08:17:18;;;;;;;6.08;2.02;;;;;;;15.88;41.18;101939.55;1937880;74;21090;-59
2022/02/12 08:19:49;;;;;;;8.28;2.12;;;;;;;16.32;41.83;101965.12;1954164;73;21482;-59
2022/02/12 08:22:20;;;;;;;3.30;2.10;;;;;;;17.16;40.59;101958.66;1962926;73;21074;-59
2022/02/12 08:24:49;;;;;;;6.08;1.80;;;;;;;17.70;39.40;101963.18;1963385;73;21013;-60
2022/02/12 08:30:09;;;;;;;10.78;2.30;;;;;;;17.65;38.93;101951.88;1951598;73;21122;-59
2022/02/12 08:32:41;;;;;;;3.58;2.00;;;;;;;15.72;41.67;101969.82;1949995;73;21044;-61
2022/02/12 08:35:15;;;;;;;5.67;1.52;;;;;;;14.83;43.31;101971.98;1949784;73;20992;-59
2022/02/12 08:37:45;;;;;;;4.95;2.22;;;;;;;15.96;41.84;101965.31;1949845;73;21073;-60
2022/02/12 08:40:22;;;;;;;4.37;2.00;;;;;;;16.47;40.90;101951.61;1950480;73;21004;-59
2022/02/12 08:42:48;;;;;;;4.45;2.25;;;;;;;16.27;41.46;101962.67;1949481;73;21122;-59
2022/02/12 08:45:19;;;;;;;3.12;1.37;;;;;;;15.79;41.41;101964.69;1949011;73;21350;-59
2022/02/12 08:47:48;;;;;;;6.35;2.12;;;;;;;14.21;43.18;101967.52;1949603;73;21524;-60
2022/02/12 08:50:17;;;;;;;8.65;2.85;;;;;;;13.74;45.36;101970.00;1946636;73;21537;-61
2022/02/12 08:52:46;;;;;;;3.00;2.02;;;;;;;13.81;45.59;101956.09;1946910;73;21454;-60
2022/02/12 08:58:05;;;;;;;6.78;2.50;;;;;;;15.06;44.06;101900.34;1928276;74;21045;-60
2022/02/12 09:00:33;;;;;;;3.50;1.77;;;;;;;16.36;40.50;101942.81;1928271;74;21508;-64
2022/02/12 09:03:02;;;;;;;5.05;2.33;;;;;;;17.24;38.84;101951.63;1928293;74;21022;-61
2022/02/12 09:05:31;;;;;;;3.85;1.75;;;;;;;17.91;37.45;101946.64;1928539;74;21042;-63
2022/02/12 09:08:00;;;;;;;6.67;1.87;;;;;;;18.06;37.10;101943.66;1928342;74;21178;-63
2022/02/12 09:10:28;;;;;;;9.88;1.82;;;;;;;16.94;38.49;101940.17;1928546;74;21085;-61
2022/02/12 09:12:57;;;;;;;4.58;1.92;;;;;;;15.20;41.34;101948.03;1928246;74;21488;-64
2022/02/12 09:15:26;;;;;;;5.10;2.02;;;;;;;15.06;42.27;101948.09;1928530;74;21049;-60
2022/02/12 09:17:55;;;;;;;6.22;2.12;;;;;;;14.77;42.05;101943.03;1928309;74;21491;-63
2022/02/12 09:20:24;;;;;;;8.25;2.72;;;;;;;13.71;44.04;101964.33;1928319;74;21042;-62
2022/02/12 09:22:53;;;;;;;13.00;2.37;;;;;;;13.14;45.79;101946.25;1928293;74;21053;-61
2022/02/12 09:25:22;;;;;;;7.28;2.42;;;;;;;12.72;47.80;101966.88;1928259;74;21038;-63
2022/02/12 09:27:50;;;;;;;9.03;2.60;;;;;;;12.08;49.55;101956.28;1928414;74;21042;-62
2022/02/12 09:30:19;;;;;;;3.98;1.42;;;;;;;11.80;50.42;101966.19;1928435;74;21058;-62
2022/02/12 09:32:50;;;;;;;16.02;3.58;;;;;;;11.71;50.93;101949.27;1928338;74;21084;-62
2022/02/12 09:35:18;;;;;;;2.85;2.33;;;;;;;11.55;51.73;101939.09;1928427;74;21077;-63
2022/02/12 09:37:47;;;;;;;10.18;3.12;;;;;;;11.41;51.72;101926.67;1928514;74;21081;-63
2022/02/12 09:40:17;;;;;;;8.40;3.15;;;;;;;11.37;51.93;101948.30;1928224;74;21203;-64
2022/02/12 09:42:50;;;;;;;5.50;1.80;;;;;;;11.30;52.31;101944.52;1961455;73;21028;-63
2022/02/12 09:45:19;;;;;;;4.90;2.20;;;;;;;12.39;50.46;101925.11;1963962;73;21148;-62
2022/02/12 09:47:50;;;;;;;8.03;2.33;;;;;;;12.80;48.84;101931.87;1966243;73;21047;-62
2022/02/12 09:50:21;;;;;;;5.65;1.72;;;;;;;13.71;47.31;101929.06;1959027;73;21233;-62
2022/02/12 09:52:52;;;;;;;6.50;2.05;;;;;;;13.28;47.61;101918.53;1966096;73;21142;-62
2022/02/12 09:55:23;;;;;;;8.58;2.65;;;;;;;12.93;47.98;101933.23;1966227;73;21027;-62
2022/02/12 09:57:52;;;;;;;9.65;2.33;;;;;;;12.49;48.79;101919.99;1968630;73;21060;-62
2022/02/12 10:00:20;;;;;;;5.17;2.65;;;;;;;12.57;48.87;101920.63;1969847;73;21039;-62
2022/02/12 10:02:49;;;;;;;5.97;2.77;;;;;;;14.17;46.06;101900.15;1902251;73;21063;-64
2022/02/12 10:05:30;;;;;;;8.45;2.10;;;;;;;15.22;43.71;101913.88;1899674;75;21372;-64
2022/02/12 10:08:12;;;;;;;6.47;2.00;;;;;;;16.15;42.01;101908.25;1899712;75;21062;-63
2022/02/12 10:10:40;;;;;;;4.60;1.90;;;;;;;16.77;40.62;101905.50;1899678;75;21074;-63
2022/02/12 10:13:13;;;;;;;11.12;2.35;;;;;;;17.04;39.50;101901.16;1899696;75;21083;-65
2022/02/12 10:15:44;;;;;;;4.25;1.85;;;;;;;17.20;38.67;101907.95;1912977;73;21098;-62
2022/02/12 10:18:13;;;;;;;5.40;2.35;;;;;;;17.13;38.33;101918.91;1969792;73;21047;-63
2022/02/12 10:20:44;;;;;;;5.90;2.35;;;;;;;17.16;38.38;101916.55;1969778;73;21543;-63
2022/02/12 10:23:21;;;;;;;4.22;2.02;;;;;;;17.17;38.08;101892.97;1969914;73;21020;-63
2022/02/12 10:26:05;;;;;;;6.58;2.58;;;;;;;17.05;37.84;101902.90;1964477;73;21008;-64
2022/02/12 10:28:37;;;;;;;;;;;;;;;16.88;38.06;101900.56;1902503;75;21480;-62
2022/02/12 10:31:06;;;;;;;9.20;3.65;;;;;;;16.95;37.96;101903.34;1899676;75;20418;-63
2022/02/12 10:33:43;;;;;;;3.12;1.57;;;;;;;16.69;37.74;101882.38;1900804;73;21493;-63
2022/02/12 10:36:17;;;;;;;12.30;3.12;;;;;;;16.60;38.42;101893.84;1899751;75;21146;-63
2022/02/12 10:38:49;;;;;;;3.12;2.33;;;;;;;16.81;38.21;101900.42;1899691;75;21031;-63
2022/02/12 10:41:23;;;;;;;6.40;2.40;;;;;;;16.62;38.19;101915.49;1899722;75;21087;-63
2022/02/12 10:43:56;;;;;;;5.53;2.37;;;;;;;16.60;38.56;101895.65;1913359;73;21119;-63
2022/02/12 10:46:26;;;;;;;7.20;2.60;;;;;;;16.93;38.59;101897.23;1934937;74;21413;-62
2022/02/12 10:48:55;;;;;;;7.00;3.10;;;;;;;17.12;38.29;101873.73;1934804;74;21095;-62
2022/02/12 10:51:24;;;;;;;4.95;2.40;;;;;;;17.11;37.78;101890.63;1934727;74;21079;-62
2022/02/12 10:54:09;;;;;;;6.00;2.47;;;;;;;17.13;37.53;101881.64;1936562;73;21041;-63
2022/02/12 10:56:56;;;;;;;3.45;1.98;;;;;;;16.92;37.85;101898.63;1934772;74;21107;-63
2022/02/12 10:59:25;;;;;;;6.75;2.55;;;;;;;16.85;37.73;101894.05;1934687;73;21583;-61
2022/02/12 11:01:54;;;;;;;10.63;2.62;;;;;;;16.96;37.89;101910.36;1934707;74;21535;-61
2022/02/12 11:04:25;;;;;;;5.90;2.80;;;;;;;16.72;37.64;101918.14;1934885;74;21465;-62
2022/02/12 11:06:55;;;;;;;3.98;2.65;;;;;;;16.16;39.02;101907.34;1934880;74;21022;-62
2022/02/12 11:09:24;;;;;;;9.50;3.30;;;;;;;16.33;39.43;101900.41;1915263;74;21572;-61
2022/02/12 11:11:53;;;;;;;8.25;2.70;;;;;;;16.58;39.19;101878.43;1915121;73;21544;-67
2022/02/12 11:14:22;;;;;;;5.10;2.22;;;;;;;16.73;39.22;101897.27;1946158;73;21529;-67
2022/02/12 11:16:52;;;;;;;7.65;2.08;;;;;;;16.83;38.61;101900.39;1969724;73;21055;-66
2022/02/12 11:19:22;;;;;;;4.53;2.55;;;;;;;16.86;38.90;101910.90;1946224;73;22307;-58
2022/02/12 11:21:51;;;;;;;3.40;1.87;;;;;;;16.76;38.45;101903.28;1927263;74;21076;-60
2022/02/12 11:24:23;;;;;;;6.78;3.25;;;;;;;16.82;38.39;101904.83;1927103;74;21063;-59
2022/02/12 11:26:52;;;;;;;6.90;2.27;;;;;;;16.66;38.68;101905.98;1924973;74;21063;-61
2022/02/12 11:29:33;;;;;;;4.55;2.65;;;;;;;16.49;38.64;101892.59;1927282;74;21427;-60
2022/02/12 11:32:19;;;;;;;7.03;2.67;;;;;;;16.12;39.35;101891.14;1927836;74;21042;-61
2022/02/12 11:34:55;;;;;;;7.28;1.87;;;;;;;15.92;39.58;101899.12;1890969;74;21047;-60
2022/02/12 11:37:25;;;;;;;5.20;2.20;;;;;;;15.64;40.06;101898.92;1891290;76;21017;-59
2022/02/12 11:40:17;;;;;;;6.40;2.47;;;;;;;15.53;40.45;101896.72;1891891;74;21013;-61
2022/02/12 11:43:03;;;;;;;11.05;3.35;;;;;;;15.65;40.16;101907.27;1867095;76;21057;-63
2022/02/12 11:45:34;;;;;;;4.55;2.40;;;;;;;15.37;40.01;101914.19;1882704;76;21022;-62
2022/02/12 11:48:29;;;;;;;3.87;1.80;;;;;;;14.83;40.55;101899.07;1884117;76;21059;-62
2022/02/12 11:51:06;;;;;;;6.45;2.33;;;;;;;14.76;41.22;101904.20;1884082;76;21114;-61
2022/02/12 11:53:48;;;;;;;8.43;2.95;;;;;;;14.84;40.05;101905.61;1884140;76;21192;-61
2022/02/12 11:56:22;;;;;;;8.68;2.08;;;;;;;14.35;39.52;101917.14;1884138;76;21039;-65